Portada
METAR-TAF:

METAR-TAF

Aeroports :

Yanbu, Aràbia Saudita

latitud: 24-09N, longitud: 038-04E, altitud: 8 m

Observació

L'informe es va fer fa 41 minuts, a les 07:00 UTC
Vent 6 kt del Nord/Nord-Oest
Temperatura 25°C
Humitat 57%
Pressió 1011 hPa
Visibilitat 10 km o més
Escasses núvols a una alçada de 4000 ft

METAR: OEYN 260700Z 33006KT 9999 FEW040 25/16 Q1011 NOSIG

Hora: 10:41 (07:41 UTC)

Pronòstic

L'informe es va fer fa 8 hores i 41 minuts, a les 23:00 UTC
Pronòstic vàlid del 26 a les 00 UTC al 27 a les 06 UTC
Vent 6 kt del Nord
Visibilitat 10 km o més
Escasses núvols a una alçada de 4000 ft
Temporalment
l' 26 a les 00 UTC al 26 a les 04 UTC
Escasses núvols a una alçada de 3500 ft, Cumulonimbus.
Núvols disperses a una alçada de 4000 ft
tempesta
Evolucionant progressivament
l' 26 a les 08 UTC al 26 a les 10 UTC
Vent 16 kt del Nord/Nord-Oest

TAF: OEYN 252300Z 2600/2706 36006KT 9999 FEW040 TEMPO 2600/2604 TS FEW035CB SCT040 BECMG 2608/2610 33016KT

Observacions i pronòstics meteorològics de més de 4000 aeroports (METAR i TAF).

Les estacions disponibles són els punts grocs i vermells al mapa.

Posi el ratolí al punt desitjat per veure el nom de l'estació.

Feu clic per veure les observacions i els pronòstics meteorològics.

Per canviar el mapa: feu clic els botons verds amb una creu de color negre per apropar; al botó verd amb un guió per allunyar la imatge; o en les fletxes verdes per a mapes adjacents.


METAR-TAF: